sensor_id;sensor_type;location;lat;lon;timestamp;P1;durP1;ratioP1;P2;durP2;ratioP2
37545;SDS011;23389;52.484;13.572;2023-04-25T00:00:44;7.40;;;3.23;;
37545;SDS011;23389;52.484;13.572;2023-04-25T00:03:09;6.57;;;3.35;;
37545;SDS011;23389;52.484;13.572;2023-04-25T00:05:34;7.38;;;3.10;;
37545;SDS011;23389;52.484;13.572;2023-04-25T00:08:01;6.05;;;3.10;;
37545;SDS011;23389;52.484;13.572;2023-04-25T00:10:27;6.73;;;3.13;;
37545;SDS011;23389;52.484;13.572;2023-04-25T00:12:52;7.78;;;3.17;;
37545;SDS011;23389;52.484;13.572;2023-04-25T00:15:17;6.95;;;2.78;;
37545;SDS011;23389;52.484;13.572;2023-04-25T00:17:42;5.85;;;2.30;;
37545;SDS011;23389;52.484;13.572;2023-04-25T00:20:07;5.95;;;2.60;;
37545;SDS011;23389;52.484;13.572;2023-04-25T00:22:34;6.30;;;2.65;;
37545;SDS011;23389;52.484;13.572;2023-04-25T00:25:00;6.38;;;2.58;;
37545;SDS011;23389;52.484;13.572;2023-04-25T00:27:25;6.47;;;2.45;;
37545;SDS011;23389;52.484;13.572;2023-04-25T00:29:50;5.15;;;2.40;;
37545;SDS011;23389;52.484;13.572;2023-04-25T00:32:15;7.32;;;2.63;;
37545;SDS011;23389;52.484;13.572;2023-04-25T00:34:40;7.82;;;2.75;;
37545;SDS011;23389;52.484;13.572;2023-04-25T00:37:05;6.63;;;2.60;;
37545;SDS011;23389;52.484;13.572;2023-04-25T00:39:31;6.63;;;2.20;;
37545;SDS011;23389;52.484;13.572;2023-04-25T00:41:56;6.90;;;2.63;;
37545;SDS011;23389;52.484;13.572;2023-04-25T00:44:21;6.85;;;2.55;;
37545;SDS011;23389;52.484;13.572;2023-04-25T00:46:47;6.70;;;2.50;;
37545;SDS011;23389;52.484;13.572;2023-04-25T00:49:12;6.32;;;2.60;;
37545;SDS011;23389;52.484;13.572;2023-04-25T00:51:40;7.60;;;2.40;;
37545;SDS011;23389;52.484;13.572;2023-04-25T00:54:05;7.30;;;2.65;;
37545;SDS011;23389;52.484;13.572;2023-04-25T00:56:30;5.38;;;2.70;;
37545;SDS011;23389;52.484;13.572;2023-04-25T00:58:56;7.63;;;2.47;;
37545;SDS011;23389;52.484;13.572;2023-04-25T01:01:21;8.98;;;2.70;;
37545;SDS011;23389;52.484;13.572;2023-04-25T01:03:46;5.13;;;2.20;;
37545;SDS011;23389;52.484;13.572;2023-04-25T01:06:11;6.05;;;2.70;;
37545;SDS011;23389;52.484;13.572;2023-04-25T01:08:37;7.53;;;2.67;;
37545;SDS011;23389;52.484;13.572;2023-04-25T01:11:02;7.68;;;3.13;;
37545;SDS011;23389;52.484;13.572;2023-04-25T01:13:28;9.90;;;2.95;;
37545;SDS011;23389;52.484;13.572;2023-04-25T01:15:53;6.57;;;2.60;;
37545;SDS011;23389;52.484;13.572;2023-04-25T01:18:18;8.10;;;2.50;;
37545;SDS011;23389;52.484;13.572;2023-04-25T01:20:43;6.60;;;2.60;;
37545;SDS011;23389;52.484;13.572;2023-04-25T01:23:09;5.80;;;2.67;;
37545;SDS011;23389;52.484;13.572;2023-04-25T01:25:34;6.80;;;3.10;;
37545;SDS011;23389;52.484;13.572;2023-04-25T01:27:59;8.10;;;2.93;;
37545;SDS011;23389;52.484;13.572;2023-04-25T01:30:27;8.45;;;2.95;;
37545;SDS011;23389;52.484;13.572;2023-04-25T01:32:54;6.72;;;3.08;;
37545;SDS011;23389;52.484;13.572;2023-04-25T01:35:20;10.23;;;3.70;;
37545;SDS011;23389;52.484;13.572;2023-04-25T01:37:45;10.70;;;2.97;;
37545;SDS011;23389;52.484;13.572;2023-04-25T01:40:10;9.13;;;3.53;;
37545;SDS011;23389;52.484;13.572;2023-04-25T01:42:37;11.65;;;2.90;;
37545;SDS011;23389;52.484;13.572;2023-04-25T01:45:02;7.30;;;2.90;;
37545;SDS011;23389;52.484;13.572;2023-04-25T01:47:27;9.90;;;2.83;;
37545;SDS011;23389;52.484;13.572;2023-04-25T01:49:52;9.20;;;3.50;;
37545;SDS011;23389;52.484;13.572;2023-04-25T01:52:18;6.88;;;2.90;;
37545;SDS011;23389;52.484;13.572;2023-04-25T01:54:43;9.13;;;3.33;;
37545;SDS011;23389;52.484;13.572;2023-04-25T01:57:10;8.27;;;2.63;;
37545;SDS011;23389;52.484;13.572;2023-04-25T01:59:35;8.80;;;3.30;;
37545;SDS011;23389;52.484;13.572;2023-04-25T02:02:01;7.05;;;2.97;;
37545;SDS011;23389;52.484;13.572;2023-04-25T02:04:28;7.55;;;3.30;;
37545;SDS011;23389;52.484;13.572;2023-04-25T02:06:53;8.18;;;3.35;;
37545;SDS011;23389;52.484;13.572;2023-04-25T02:09:18;8.57;;;3.30;;
37545;SDS011;23389;52.484;13.572;2023-04-25T02:11:44;10.23;;;3.17;;
37545;SDS011;23389;52.484;13.572;2023-04-25T02:14:10;11.57;;;3.80;;
37545;SDS011;23389;52.484;13.572;2023-04-25T02:16:35;9.85;;;3.22;;
37545;SDS011;23389;52.484;13.572;2023-04-25T02:19:00;8.98;;;3.53;;
37545;SDS011;23389;52.484;13.572;2023-04-25T02:21:25;7.50;;;3.30;;
37545;SDS011;23389;52.484;13.572;2023-04-25T02:23:51;9.48;;;3.50;;
37545;SDS011;23389;52.484;13.572;2023-04-25T02:26:16;9.60;;;4.18;;
37545;SDS011;23389;52.484;13.572;2023-04-25T02:28:42;7.68;;;3.10;;
37545;SDS011;23389;52.484;13.572;2023-04-25T02:31:07;9.43;;;3.70;;
37545;SDS011;23389;52.484;13.572;2023-04-25T02:33:32;8.60;;;3.40;;
37545;SDS011;23389;52.484;13.572;2023-04-25T02:35:57;7.97;;;3.55;;
37545;SDS011;23389;52.484;13.572;2023-04-25T02:38:22;11.77;;;4.03;;
37545;SDS011;23389;52.484;13.572;2023-04-25T02:40:47;11.13;;;3.78;;
37545;SDS011;23389;52.484;13.572;2023-04-25T02:43:12;8.02;;;3.58;;
37545;SDS011;23389;52.484;13.572;2023-04-25T02:45:37;10.30;;;3.87;;
37545;SDS011;23389;52.484;13.572;2023-04-25T02:48:03;8.45;;;3.35;;
37545;SDS011;23389;52.484;13.572;2023-04-25T02:50:28;8.80;;;3.70;;
37545;SDS011;23389;52.484;13.572;2023-04-25T02:52:53;9.65;;;3.88;;
37545;SDS011;23389;52.484;13.572;2023-04-25T02:55:18;10.25;;;4.35;;
37545;SDS011;23389;52.484;13.572;2023-04-25T02:57:43;8.33;;;4.30;;
37545;SDS011;23389;52.484;13.572;2023-04-25T03:00:08;10.98;;;4.68;;
37545;SDS011;23389;52.484;13.572;2023-04-25T03:02:36;10.15;;;4.25;;
37545;SDS011;23389;52.484;13.572;2023-04-25T03:05:01;12.88;;;4.63;;
37545;SDS011;23389;52.484;13.572;2023-04-25T03:07:28;9.68;;;4.00;;
37545;SDS011;23389;52.484;13.572;2023-04-25T03:09:53;7.50;;;3.63;;
37545;SDS011;23389;52.484;13.572;2023-04-25T03:12:18;8.70;;;3.83;;
37545;SDS011;23389;52.484;13.572;2023-04-25T03:14:43;8.88;;;4.30;;
37545;SDS011;23389;52.484;13.572;2023-04-25T03:17:08;8.10;;;3.60;;
37545;SDS011;23389;52.484;13.572;2023-04-25T03:19:33;8.88;;;3.83;;
37545;SDS011;23389;52.484;13.572;2023-04-25T03:21:58;8.23;;;4.20;;
37545;SDS011;23389;52.484;13.572;2023-04-25T03:24:23;9.90;;;4.13;;
37545;SDS011;23389;52.484;13.572;2023-04-25T03:26:49;9.98;;;4.38;;
37545;SDS011;23389;52.484;13.572;2023-04-25T03:29:14;9.87;;;4.00;;
37545;SDS011;23389;52.484;13.572;2023-04-25T03:31:39;10.67;;;4.63;;
37545;SDS011;23389;52.484;13.572;2023-04-25T03:34:04;9.33;;;4.07;;
37545;SDS011;23389;52.484;13.572;2023-04-25T03:36:29;10.05;;;4.55;;
37545;SDS011;23389;52.484;13.572;2023-04-25T03:38:54;9.10;;;4.20;;
37545;SDS011;23389;52.484;13.572;2023-04-25T03:41:19;8.52;;;4.35;;
37545;SDS011;23389;52.484;13.572;2023-04-25T03:43:45;10.20;;;4.00;;
37545;SDS011;23389;52.484;13.572;2023-04-25T03:46:10;9.67;;;4.20;;
37545;SDS011;23389;52.484;13.572;2023-04-25T03:48:35;10.43;;;5.07;;
37545;SDS011;23389;52.484;13.572;2023-04-25T03:51:01;11.82;;;4.75;;
37545;SDS011;23389;52.484;13.572;2023-04-25T03:53:26;9.37;;;4.30;;
37545;SDS011;23389;52.484;13.572;2023-04-25T03:55:51;11.30;;;4.30;;
37545;SDS011;23389;52.484;13.572;2023-04-25T03:58:16;9.30;;;4.30;;
37545;SDS011;23389;52.484;13.572;2023-04-25T04:00:41;12.00;;;4.50;;
37545;SDS011;23389;52.484;13.572;2023-04-25T04:03:06;9.93;;;4.43;;
37545;SDS011;23389;52.484;13.572;2023-04-25T04:05:31;9.63;;;4.38;;
37545;SDS011;23389;52.484;13.572;2023-04-25T04:07:57;7.72;;;4.43;;
37545;SDS011;23389;52.484;13.572;2023-04-25T04:10:22;10.63;;;4.65;;
37545;SDS011;23389;52.484;13.572;2023-04-25T04:12:47;10.40;;;4.87;;
37545;SDS011;23389;52.484;13.572;2023-04-25T04:15:12;10.88;;;4.95;;
37545;SDS011;23389;52.484;13.572;2023-04-25T04:17:38;12.35;;;4.75;;
37545;SDS011;23389;52.484;13.572;2023-04-25T04:20:03;8.73;;;4.50;;
37545;SDS011;23389;52.484;13.572;2023-04-25T04:22:29;8.50;;;4.38;;
37545;SDS011;23389;52.484;13.572;2023-04-25T04:24:54;9.70;;;4.43;;
37545;SDS011;23389;52.484;13.572;2023-04-25T04:27:19;9.27;;;4.70;;
37545;SDS011;23389;52.484;13.572;2023-04-25T04:29:45;9.63;;;4.07;;
37545;SDS011;23389;52.484;13.572;2023-04-25T04:32:11;10.85;;;4.25;;
37545;SDS011;23389;52.484;13.572;2023-04-25T04:34:36;8.57;;;4.18;;
37545;SDS011;23389;52.484;13.572;2023-04-25T04:37:02;12.30;;;4.80;;
37545;SDS011;23389;52.484;13.572;2023-04-25T04:39:27;12.20;;;4.40;;
37545;SDS011;23389;52.484;13.572;2023-04-25T04:41:53;9.25;;;4.18;;
37545;SDS011;23389;52.484;13.572;2023-04-25T04:44:18;9.68;;;4.20;;
37545;SDS011;23389;52.484;13.572;2023-04-25T04:46:43;12.73;;;4.35;;
37545;SDS011;23389;52.484;13.572;2023-04-25T04:49:09;9.77;;;3.88;;
37545;SDS011;23389;52.484;13.572;2023-04-25T04:51:34;13.18;;;4.35;;
37545;SDS011;23389;52.484;13.572;2023-04-25T04:53:59;10.43;;;4.20;;
37545;SDS011;23389;52.484;13.572;2023-04-25T04:56:27;9.13;;;4.10;;
37545;SDS011;23389;52.484;13.572;2023-04-25T04:58:53;11.18;;;4.47;;
37545;SDS011;23389;52.484;13.572;2023-04-25T05:01:18;10.48;;;4.55;;
37545;SDS011;23389;52.484;13.572;2023-04-25T05:03:43;10.65;;;4.70;;
37545;SDS011;23389;52.484;13.572;2023-04-25T05:06:08;9.43;;;4.93;;
37545;SDS011;23389;52.484;13.572;2023-04-25T05:08:33;11.27;;;4.70;;
37545;SDS011;23389;52.484;13.572;2023-04-25T05:10:58;9.77;;;4.23;;
37545;SDS011;23389;52.484;13.572;2023-04-25T05:13:24;12.40;;;4.60;;
37545;SDS011;23389;52.484;13.572;2023-04-25T05:15:49;9.20;;;4.20;;
37545;SDS011;23389;52.484;13.572;2023-04-25T05:18:14;9.48;;;4.55;;
37545;SDS011;23389;52.484;13.572;2023-04-25T05:20:39;9.23;;;3.90;;
37545;SDS011;23389;52.484;13.572;2023-04-25T05:23:05;9.07;;;3.80;;
37545;SDS011;23389;52.484;13.572;2023-04-25T05:25:30;12.83;;;4.50;;
37545;SDS011;23389;52.484;13.572;2023-04-25T05:27:55;10.73;;;4.70;;
37545;SDS011;23389;52.484;13.572;2023-04-25T05:30:21;10.77;;;4.38;;
37545;SDS011;23389;52.484;13.572;2023-04-25T05:32:46;10.45;;;4.57;;
37545;SDS011;23389;52.484;13.572;2023-04-25T05:35:12;9.95;;;4.63;;
37545;SDS011;23389;52.484;13.572;2023-04-25T05:37:37;10.40;;;4.72;;
37545;SDS011;23389;52.484;13.572;2023-04-25T05:40:02;9.98;;;4.78;;
37545;SDS011;23389;52.484;13.572;2023-04-25T05:42:31;10.75;;;4.88;;
37545;SDS011;23389;52.484;13.572;2023-04-25T05:44:56;11.03;;;5.53;;
37545;SDS011;23389;52.484;13.572;2023-04-25T05:47:21;9.68;;;4.72;;
37545;SDS011;23389;52.484;13.572;2023-04-25T05:49:46;9.32;;;5.07;;
37545;SDS011;23389;52.484;13.572;2023-04-25T05:52:12;11.10;;;4.78;;
37545;SDS011;23389;52.484;13.572;2023-04-25T05:54:37;11.13;;;4.47;;
37545;SDS011;23389;52.484;13.572;2023-04-25T05:57:02;9.53;;;4.83;;
37545;SDS011;23389;52.484;13.572;2023-04-25T05:59:27;10.60;;;4.78;;
37545;SDS011;23389;52.484;13.572;2023-04-25T06:01:52;8.95;;;4.32;;
37545;SDS011;23389;52.484;13.572;2023-04-25T06:04:17;11.10;;;5.10;;
37545;SDS011;23389;52.484;13.572;2023-04-25T06:06:42;10.93;;;4.30;;
37545;SDS011;23389;52.484;13.572;2023-04-25T06:09:08;12.83;;;4.70;;
37545;SDS011;23389;52.484;13.572;2023-04-25T06:11:33;10.57;;;5.18;;
37545;SDS011;23389;52.484;13.572;2023-04-25T06:13:58;12.40;;;4.53;;
37545;SDS011;23389;52.484;13.572;2023-04-25T06:16:23;12.87;;;5.10;;
37545;SDS011;23389;52.484;13.572;2023-04-25T06:18:50;12.40;;;5.40;;
37545;SDS011;23389;52.484;13.572;2023-04-25T06:21:15;11.88;;;5.05;;
37545;SDS011;23389;52.484;13.572;2023-04-25T06:23:40;9.73;;;5.70;;
37545;SDS011;23389;52.484;13.572;2023-04-25T06:26:06;10.68;;;5.10;;
37545;SDS011;23389;52.484;13.572;2023-04-25T06:28:31;12.77;;;5.55;;
37545;SDS011;23389;52.484;13.572;2023-04-25T06:30:56;10.07;;;4.90;;
37545;SDS011;23389;52.484;13.572;2023-04-25T06:33:21;10.27;;;4.90;;
37545;SDS011;23389;52.484;13.572;2023-04-25T06:35:47;11.25;;;5.35;;
37545;SDS011;23389;52.484;13.572;2023-04-25T06:38:12;10.27;;;5.38;;
37545;SDS011;23389;52.484;13.572;2023-04-25T06:40:37;15.32;;;6.13;;
37545;SDS011;23389;52.484;13.572;2023-04-25T06:43:02;12.40;;;6.03;;
37545;SDS011;23389;52.484;13.572;2023-04-25T06:45:27;10.05;;;5.53;;
37545;SDS011;23389;52.484;13.572;2023-04-25T06:47:52;11.05;;;5.20;;
37545;SDS011;23389;52.484;13.572;2023-04-25T06:50:18;12.57;;;6.00;;
37545;SDS011;23389;52.484;13.572;2023-04-25T06:52:43;12.90;;;5.25;;
37545;SDS011;23389;52.484;13.572;2023-04-25T06:55:08;8.65;;;5.05;;
37545;SDS011;23389;52.484;13.572;2023-04-25T06:57:33;12.52;;;5.32;;
37545;SDS011;23389;52.484;13.572;2023-04-25T06:59:58;11.43;;;6.10;;
37545;SDS011;23389;52.484;13.572;2023-04-25T07:02:23;12.25;;;5.10;;
37545;SDS011;23389;52.484;13.572;2023-04-25T07:04:49;12.20;;;5.50;;
37545;SDS011;23389;52.484;13.572;2023-04-25T07:07:14;9.80;;;5.27;;
37545;SDS011;23389;52.484;13.572;2023-04-25T07:09:39;12.25;;;5.38;;
37545;SDS011;23389;52.484;13.572;2023-04-25T07:12:04;9.70;;;4.82;;
37545;SDS011;23389;52.484;13.572;2023-04-25T07:14:29;11.50;;;5.22;;
37545;SDS011;23389;52.484;13.572;2023-04-25T07:16:55;11.67;;;4.97;;
37545;SDS011;23389;52.484;13.572;2023-04-25T07:19:21;14.88;;;5.95;;
37545;SDS011;23389;52.484;13.572;2023-04-25T07:21:48;9.32;;;4.65;;
37545;SDS011;23389;52.484;13.572;2023-04-25T07:24:13;12.50;;;5.10;;
37545;SDS011;23389;52.484;13.572;2023-04-25T07:26:38;11.77;;;4.97;;
37545;SDS011;23389;52.484;13.572;2023-04-25T07:29:04;9.73;;;4.97;;
37545;SDS011;23389;52.484;13.572;2023-04-25T07:31:29;8.57;;;4.50;;
37545;SDS011;23389;52.484;13.572;2023-04-25T07:33:54;9.43;;;4.10;;
37545;SDS011;23389;52.484;13.572;2023-04-25T07:36:19;9.85;;;5.18;;
37545;SDS011;23389;52.484;13.572;2023-04-25T07:38:44;10.02;;;4.60;;
37545;SDS011;23389;52.484;13.572;2023-04-25T07:41:09;8.55;;;4.03;;
37545;SDS011;23389;52.484;13.572;2023-04-25T07:43:34;9.90;;;4.35;;
37545;SDS011;23389;52.484;13.572;2023-04-25T07:46:00;9.80;;;4.33;;
37545;SDS011;23389;52.484;13.572;2023-04-25T07:48:25;10.57;;;4.43;;
37545;SDS011;23389;52.484;13.572;2023-04-25T07:50:50;9.75;;;4.43;;
37545;SDS011;23389;52.484;13.572;2023-04-25T07:53:15;9.27;;;4.00;;
37545;SDS011;23389;52.484;13.572;2023-04-25T07:55:41;9.45;;;4.47;;
37545;SDS011;23389;52.484;13.572;2023-04-25T07:58:06;12.47;;;4.27;;
37545;SDS011;23389;52.484;13.572;2023-04-25T08:00:32;15.85;;;4.68;;
37545;SDS011;23389;52.484;13.572;2023-04-25T08:02:57;12.77;;;4.57;;
37545;SDS011;23389;52.484;13.572;2023-04-25T08:05:22;13.63;;;5.47;;
37545;SDS011;23389;52.484;13.572;2023-04-25T08:07:47;10.90;;;4.55;;
37545;SDS011;23389;52.484;13.572;2023-04-25T08:10:12;12.98;;;4.63;;
37545;SDS011;23389;52.484;13.572;2023-04-25T08:12:37;12.32;;;4.50;;
37545;SDS011;23389;52.484;13.572;2023-04-25T08:15:03;10.02;;;4.30;;
37545;SDS011;23389;52.484;13.572;2023-04-25T08:17:28;11.52;;;4.28;;
37545;SDS011;23389;52.484;13.572;2023-04-25T08:19:53;14.20;;;4.80;;
37545;SDS011;23389;52.484;13.572;2023-04-25T08:22:18;10.80;;;4.37;;
37545;SDS011;23389;52.484;13.572;2023-04-25T08:24:44;14.50;;;5.68;;
37545;SDS011;23389;52.484;13.572;2023-04-25T08:27:09;18.63;;;5.68;;
37545;SDS011;23389;52.484;13.572;2023-04-25T08:29:34;15.95;;;4.72;;
37545;SDS011;23389;52.484;13.572;2023-04-25T08:32:00;19.52;;;5.03;;
37545;SDS011;23389;52.484;13.572;2023-04-25T08:34:25;24.98;;;5.55;;
37545;SDS011;23389;52.484;13.572;2023-04-25T08:36:51;16.00;;;4.10;;
37545;SDS011;23389;52.484;13.572;2023-04-25T08:39:16;18.95;;;4.78;;
37545;SDS011;23389;52.484;13.572;2023-04-25T08:41:41;15.55;;;4.18;;
37545;SDS011;23389;52.484;13.572;2023-04-25T08:44:06;14.27;;;4.47;;
37545;SDS011;23389;52.484;13.572;2023-04-25T08:46:34;18.95;;;4.85;;
37545;SDS011;23389;52.484;13.572;2023-04-25T08:49:00;16.10;;;4.50;;
37545;SDS011;23389;52.484;13.572;2023-04-25T08:51:26;15.43;;;4.15;;
37545;SDS011;23389;52.484;13.572;2023-04-25T08:53:53;17.60;;;4.45;;
37545;SDS011;23389;52.484;13.572;2023-04-25T08:56:18;18.23;;;5.15;;
37545;SDS011;23389;52.484;13.572;2023-04-25T08:58:46;15.68;;;4.43;;
37545;SDS011;23389;52.484;13.572;2023-04-25T09:01:12;16.55;;;4.60;;
37545;SDS011;23389;52.484;13.572;2023-04-25T09:03:37;13.88;;;3.75;;
37545;SDS011;23389;52.484;13.572;2023-04-25T09:06:03;15.70;;;4.07;;
37545;SDS011;23389;52.484;13.572;2023-04-25T09:08:28;15.00;;;4.65;;
37545;SDS011;23389;52.484;13.572;2023-04-25T09:10:53;15.70;;;4.18;;
37545;SDS011;23389;52.484;13.572;2023-04-25T09:13:24;13.80;;;3.75;;
37545;SDS011;23389;52.484;13.572;2023-04-25T09:15:50;13.95;;;3.78;;
37545;SDS011;23389;52.484;13.572;2023-04-25T09:18:25;16.13;;;3.80;;
37545;SDS011;23389;52.484;13.572;2023-04-25T09:20:51;11.82;;;3.42;;
37545;SDS011;23389;52.484;13.572;2023-04-25T09:23:17;18.38;;;3.47;;
37545;SDS011;23389;52.484;13.572;2023-04-25T09:25:44;11.40;;;3.53;;
37545;SDS011;23389;52.484;13.572;2023-04-25T09:28:11;12.10;;;3.22;;
37545;SDS011;23389;52.484;13.572;2023-04-25T09:30:37;14.73;;;2.70;;
37545;SDS011;23389;52.484;13.572;2023-04-25T09:33:09;11.68;;;3.20;;
37545;SDS011;23389;52.484;13.572;2023-04-25T09:35:35;10.20;;;2.67;;
37545;SDS011;23389;52.484;13.572;2023-04-25T09:38:01;13.80;;;3.42;;
37545;SDS011;23389;52.484;13.572;2023-04-25T09:40:26;10.07;;;2.90;;
37545;SDS011;23389;52.484;13.572;2023-04-25T09:42:51;14.02;;;3.30;;
37545;SDS011;23389;52.484;13.572;2023-04-25T09:45:16;13.23;;;2.90;;
37545;SDS011;23389;52.484;13.572;2023-04-25T09:47:41;14.67;;;3.23;;
37545;SDS011;23389;52.484;13.572;2023-04-25T09:50:15;14.57;;;3.75;;
37545;SDS011;23389;52.484;13.572;2023-04-25T09:52:40;11.40;;;3.58;;
37545;SDS011;23389;52.484;13.572;2023-04-25T09:55:06;13.20;;;2.83;;
37545;SDS011;23389;52.484;13.572;2023-04-25T09:57:31;13.55;;;3.60;;
37545;SDS011;23389;52.484;13.572;2023-04-25T09:59:56;13.93;;;3.30;;
37545;SDS011;23389;52.484;13.572;2023-04-25T10:02:22;12.70;;;2.77;;
37545;SDS011;23389;52.484;13.572;2023-04-25T10:04:49;11.38;;;2.20;;
37545;SDS011;23389;52.484;13.572;2023-04-25T10:07:17;12.10;;;2.47;;
37545;SDS011;23389;52.484;13.572;2023-04-25T10:09:42;13.68;;;2.83;;
37545;SDS011;23389;52.484;13.572;2023-04-25T10:12:08;10.18;;;2.45;;
37545;SDS011;23389;52.484;13.572;2023-04-25T10:14:33;12.10;;;3.00;;
37545;SDS011;23389;52.484;13.572;2023-04-25T10:16:59;14.38;;;3.35;;
37545;SDS011;23389;52.484;13.572;2023-04-25T10:19:24;11.90;;;2.70;;
37545;SDS011;23389;52.484;13.572;2023-04-25T10:21:58;11.18;;;2.83;;
37545;SDS011;23389;52.484;13.572;2023-04-25T10:24:27;10.05;;;2.47;;
37545;SDS011;23389;52.484;13.572;2023-04-25T10:26:52;12.10;;;2.63;;
37545;SDS011;23389;52.484;13.572;2023-04-25T10:29:21;12.10;;;2.93;;
37545;SDS011;23389;52.484;13.572;2023-04-25T10:31:46;11.88;;;3.00;;
37545;SDS011;23389;52.484;13.572;2023-04-25T10:34:12;13.57;;;2.92;;
37545;SDS011;23389;52.484;13.572;2023-04-25T10:36:37;10.93;;;2.70;;
37545;SDS011;23389;52.484;13.572;2023-04-25T10:39:03;8.17;;;2.40;;
37545;SDS011;23389;52.484;13.572;2023-04-25T10:41:31;12.52;;;2.58;;
37545;SDS011;23389;52.484;13.572;2023-04-25T10:43:59;9.25;;;2.88;;
37545;SDS011;23389;52.484;13.572;2023-04-25T10:46:28;14.10;;;3.30;;
37545;SDS011;23389;52.484;13.572;2023-04-25T10:48:57;13.68;;;2.85;;
37545;SDS011;23389;52.484;13.572;2023-04-25T10:53:57;10.43;;;2.40;;
37545;SDS011;23389;52.484;13.572;2023-04-25T10:56:23;8.95;;;2.47;;
37545;SDS011;23389;52.484;13.572;2023-04-25T10:58:49;10.18;;;2.72;;
37545;SDS011;23389;52.484;13.572;2023-04-25T11:01:21;14.55;;;2.70;;
37545;SDS011;23389;52.484;13.572;2023-04-25T11:03:46;10.00;;;2.80;;
37545;SDS011;23389;52.484;13.572;2023-04-25T11:06:18;10.25;;;2.72;;
37545;SDS011;23389;52.484;13.572;2023-04-25T11:08:51;11.95;;;3.22;;
37545;SDS011;23389;52.484;13.572;2023-04-25T11:11:17;10.85;;;2.88;;
37545;SDS011;23389;52.484;13.572;2023-04-25T11:13:42;8.10;;;2.40;;
37545;SDS011;23389;52.484;13.572;2023-04-25T11:16:07;9.20;;;2.67;;
37545;SDS011;23389;52.484;13.572;2023-04-25T11:18:33;9.83;;;2.93;;
37545;SDS011;23389;52.484;13.572;2023-04-25T11:20:59;9.05;;;2.50;;
37545;SDS011;23389;52.484;13.572;2023-04-25T11:23:24;9.38;;;2.60;;
37545;SDS011;23389;52.484;13.572;2023-04-25T11:25:49;9.75;;;2.65;;
37545;SDS011;23389;52.484;13.572;2023-04-25T11:28:20;9.45;;;2.80;;
37545;SDS011;23389;52.484;13.572;2023-04-25T11:30:49;10.60;;;2.30;;
37545;SDS011;23389;52.484;13.572;2023-04-25T11:33:17;9.85;;;2.40;;
37545;SDS011;23389;52.484;13.572;2023-04-25T11:35:42;12.97;;;3.10;;
37545;SDS011;23389;52.484;13.572;2023-04-25T11:38:07;11.02;;;2.40;;
37545;SDS011;23389;52.484;13.572;2023-04-25T11:40:33;5.97;;;1.85;;
37545;SDS011;23389;52.484;13.572;2023-04-25T11:42:59;11.93;;;2.55;;
37545;SDS011;23389;52.484;13.572;2023-04-25T11:45:25;11.52;;;3.08;;
37545;SDS011;23389;52.484;13.572;2023-04-25T11:47:50;11.40;;;2.58;;
37545;SDS011;23389;52.484;13.572;2023-04-25T11:50:15;11.88;;;3.47;;
37545;SDS011;23389;52.484;13.572;2023-04-25T11:52:41;10.03;;;2.60;;
37545;SDS011;23389;52.484;13.572;2023-04-25T11:55:07;10.68;;;2.38;;
37545;SDS011;23389;52.484;13.572;2023-04-25T11:57:32;11.13;;;2.38;;
37545;SDS011;23389;52.484;13.572;2023-04-25T12:02:34;8.98;;;2.22;;
37545;SDS011;23389;52.484;13.572;2023-04-25T12:04:59;9.25;;;2.30;;
37545;SDS011;23389;52.484;13.572;2023-04-25T12:07:28;10.13;;;2.00;;
37545;SDS011;23389;52.484;13.572;2023-04-25T12:09:53;10.48;;;2.33;;
37545;SDS011;23389;52.484;13.572;2023-04-25T12:12:19;8.63;;;2.33;;
37545;SDS011;23389;52.484;13.572;2023-04-25T12:14:45;10.47;;;2.10;;
37545;SDS011;23389;52.484;13.572;2023-04-25T12:17:12;9.52;;;2.22;;
37545;SDS011;23389;52.484;13.572;2023-04-25T12:19:37;9.98;;;2.17;;
37545;SDS011;23389;52.484;13.572;2023-04-25T12:22:18;8.25;;;2.30;;
37545;SDS011;23389;52.484;13.572;2023-04-25T12:24:44;6.57;;;2.08;;
37545;SDS011;23389;52.484;13.572;2023-04-25T12:27:09;7.82;;;2.25;;
37545;SDS011;23389;52.484;13.572;2023-04-25T12:29:34;9.52;;;1.90;;
37545;SDS011;23389;52.484;13.572;2023-04-25T12:32:00;10.63;;;2.30;;
37545;SDS011;23389;52.484;13.572;2023-04-25T12:34:27;9.63;;;2.00;;
37545;SDS011;23389;52.484;13.572;2023-04-25T12:36:52;6.47;;;2.10;;
37545;SDS011;23389;52.484;13.572;2023-04-25T12:39:18;11.52;;;2.70;;
37545;SDS011;23389;52.484;13.572;2023-04-25T12:41:44;7.40;;;1.90;;
37545;SDS011;23389;52.484;13.572;2023-04-25T12:44:10;8.60;;;2.00;;
37545;SDS011;23389;52.484;13.572;2023-04-25T12:46:35;9.50;;;2.30;;
37545;SDS011;23389;52.484;13.572;2023-04-25T12:49:01;7.75;;;2.30;;
37545;SDS011;23389;52.484;13.572;2023-04-25T12:51:26;8.30;;;2.07;;
37545;SDS011;23389;52.484;13.572;2023-04-25T12:53:52;9.18;;;2.05;;
37545;SDS011;23389;52.484;13.572;2023-04-25T12:56:17;6.40;;;1.60;;
37545;SDS011;23389;52.484;13.572;2023-04-25T12:58:43;9.13;;;2.13;;
37545;SDS011;23389;52.484;13.572;2023-04-25T13:01:09;9.23;;;2.42;;
37545;SDS011;23389;52.484;13.572;2023-04-25T13:03:34;7.23;;;2.00;;
37545;SDS011;23389;52.484;13.572;2023-04-25T13:05:59;8.35;;;2.10;;
37545;SDS011;23389;52.484;13.572;2023-04-25T13:08:24;7.60;;;2.13;;
37545;SDS011;23389;52.484;13.572;2023-04-25T13:10:49;7.97;;;2.45;;
37545;SDS011;23389;52.484;13.572;2023-04-25T13:13:15;7.57;;;2.00;;
37545;SDS011;23389;52.484;13.572;2023-04-25T13:15:41;15.00;;;2.80;;
37545;SDS011;23389;52.484;13.572;2023-04-25T13:18:06;7.53;;;1.70;;
37545;SDS011;23389;52.484;13.572;2023-04-25T13:20:31;6.03;;;1.87;;
37545;SDS011;23389;52.484;13.572;2023-04-25T13:22:57;8.20;;;2.17;;
37545;SDS011;23389;52.484;13.572;2023-04-25T13:25:22;7.70;;;1.90;;
37545;SDS011;23389;52.484;13.572;2023-04-25T13:27:47;6.80;;;1.90;;
37545;SDS011;23389;52.484;13.572;2023-04-25T13:30:12;7.27;;;1.80;;
37545;SDS011;23389;52.484;13.572;2023-04-25T13:32:38;7.28;;;1.70;;
37545;SDS011;23389;52.484;13.572;2023-04-25T13:35:03;4.75;;;1.50;;
37545;SDS011;23389;52.484;13.572;2023-04-25T13:37:29;6.25;;;1.50;;
37545;SDS011;23389;52.484;13.572;2023-04-25T13:39:55;8.05;;;1.70;;
37545;SDS011;23389;52.484;13.572;2023-04-25T13:42:21;6.95;;;1.70;;
37545;SDS011;23389;52.484;13.572;2023-04-25T13:44:46;8.00;;;2.00;;
37545;SDS011;23389;52.484;13.572;2023-04-25T13:47:11;6.55;;;1.65;;
37545;SDS011;23389;52.484;13.572;2023-04-25T13:49:37;6.20;;;1.80;;
37545;SDS011;23389;52.484;13.572;2023-04-25T13:52:02;6.83;;;2.00;;
37545;SDS011;23389;52.484;13.572;2023-04-25T13:54:27;8.30;;;2.40;;
37545;SDS011;23389;52.484;13.572;2023-04-25T13:56:52;5.43;;;1.55;;
37545;SDS011;23389;52.484;13.572;2023-04-25T13:59:20;8.95;;;1.77;;
37545;SDS011;23389;52.484;13.572;2023-04-25T14:01:45;7.28;;;1.85;;
37545;SDS011;23389;52.484;13.572;2023-04-25T14:04:10;5.20;;;1.83;;
37545;SDS011;23389;52.484;13.572;2023-04-25T14:06:35;5.83;;;1.80;;
37545;SDS011;23389;52.484;13.572;2023-04-25T14:09:01;7.95;;;1.75;;
37545;SDS011;23389;52.484;13.572;2023-04-25T14:11:26;6.28;;;1.60;;
37545;SDS011;23389;52.484;13.572;2023-04-25T14:13:52;6.95;;;1.90;;
37545;SDS011;23389;52.484;13.572;2023-04-25T14:16:17;9.25;;;1.67;;
37545;SDS011;23389;52.484;13.572;2023-04-25T14:18:42;7.00;;;2.15;;
37545;SDS011;23389;52.484;13.572;2023-04-25T14:21:07;8.93;;;1.70;;
37545;SDS011;23389;52.484;13.572;2023-04-25T14:23:32;7.60;;;1.80;;